sensor_id;sensor_type;location;lat;lon;timestamp;pressure;altitude;pressure_sealevel;temperature;humidity
70072;BME280;57434;42.794;23.302;2022-09-12T00:01:22;95299.06;;;13.69;81.27
70072;BME280;57434;42.794;23.302;2022-09-12T00:03:59;95316.53;;;13.56;80.72
70072;BME280;57434;42.794;23.302;2022-09-12T00:06:31;95478.16;;;14.80;80.89
70072;BME280;57434;42.794;23.302;2022-09-12T00:09:02;95162.88;;;12.50;80.69
70072;BME280;57434;42.794;23.302;2022-09-12T00:11:28;95175.03;;;12.81;80.61
70072;BME280;57434;42.794;23.302;2022-09-12T00:13:56;95099.63;;;11.99;79.60
70072;BME280;57434;42.794;23.302;2022-09-12T00:16:26;95265.97;;;13.22;80.24
70072;BME280;57434;42.794;23.302;2022-09-12T00:18:52;95160.31;;;12.52;80.31
70072;BME280;57434;42.794;23.302;2022-09-12T00:21:19;95061.16;;;11.49;80.65
70072;BME280;57434;42.794;23.302;2022-09-12T00:23:46;95181.56;;;12.42;80.55
70072;BME280;57434;42.794;23.302;2022-09-12T00:26:12;95105.31;;;11.49;80.88
70072;BME280;57434;42.794;23.302;2022-09-12T00:28:39;95217.69;;;12.21;81.08
70072;BME280;57434;42.794;23.302;2022-09-12T00:31:13;95189.81;;;12.12;81.19
70072;BME280;57434;42.794;23.302;2022-09-12T00:33:43;95185.97;;;12.15;81.42
70072;BME280;57434;42.794;23.302;2022-09-12T00:36:14;95244.66;;;12.80;80.78
70072;BME280;57434;42.794;23.302;2022-09-12T00:38:44;95456.97;;;14.15;80.98
70072;BME280;57434;42.794;23.302;2022-09-12T00:41:19;95457.94;;;14.29;81.28
70072;BME280;57434;42.794;23.302;2022-09-12T00:43:47;95462.72;;;13.93;81.73
70072;BME280;57434;42.794;23.302;2022-09-12T00:49:07;95471.34;;;14.12;81.26
70072;BME280;57434;42.794;23.302;2022-09-12T00:51:37;95489.50;;;14.28;80.22
70072;BME280;57434;42.794;23.302;2022-09-12T00:54:11;95302.72;;;12.89;80.99
70072;BME280;57434;42.794;23.302;2022-09-12T00:56:43;95336.69;;;13.19;80.37
70072;BME280;57434;42.794;23.302;2022-09-12T00:59:20;95422.31;;;13.74;80.65
70072;BME280;57434;42.794;23.302;2022-09-12T01:01:49;95198.78;;;12.11;80.19
70072;BME280;57434;42.794;23.302;2022-09-12T01:04:20;95112.91;;;11.99;79.79
70072;BME280;57434;42.794;23.302;2022-09-12T01:06:47;95477.81;;;14.48;78.97
70072;BME280;57434;42.794;23.302;2022-09-12T01:09:20;95503.25;;;14.42;78.75
70072;BME280;57434;42.794;23.302;2022-09-12T01:11:52;95196.41;;;12.43;78.35
70072;BME280;57434;42.794;23.302;2022-09-12T01:14:20;95098.69;;;11.58;78.55
70072;BME280;57434;42.794;23.302;2022-09-12T01:16:51;95210.97;;;12.47;78.47
70072;BME280;57434;42.794;23.302;2022-09-12T01:22:59;95385.28;;;13.31;79.23
70072;BME280;57434;42.794;23.302;2022-09-12T01:28:58;95304.28;;;12.84;78.28
70072;BME280;57434;42.794;23.302;2022-09-12T01:31:39;94893.78;;;9.90;78.87
70072;BME280;57434;42.794;23.302;2022-09-12T01:34:48;95331.59;;;13.01;79.41
70072;BME280;57434;42.794;23.302;2022-09-12T01:37:46;95162.22;;;11.88;79.19
70072;BME280;57434;42.794;23.302;2022-09-12T01:40:42;95463.00;;;13.89;79.09
70072;BME280;57434;42.794;23.302;2022-09-12T01:43:41;95138.00;;;11.69;78.55
70072;BME280;57434;42.794;23.302;2022-09-12T01:46:18;95171.94;;;12.04;77.66
70072;BME280;57434;42.794;23.302;2022-09-12T01:48:57;95342.41;;;12.91;78.89
70072;BME280;57434;42.794;23.302;2022-09-12T01:51:41;95464.66;;;13.57;79.44
70072;BME280;57434;42.794;23.302;2022-09-12T01:54:18;95213.38;;;11.81;78.82
70072;BME280;57434;42.794;23.302;2022-09-12T01:56:48;95235.56;;;11.96;79.25
70072;BME280;57434;42.794;23.302;2022-09-12T01:59:23;95355.22;;;12.42;79.52
70072;BME280;57434;42.794;23.302;2022-09-12T02:02:05;95185.47;;;11.33;80.18
70072;BME280;57434;42.794;23.302;2022-09-12T02:04:57;95072.13;;;10.92;79.30
70072;BME280;57434;42.794;23.302;2022-09-12T02:07:43;95457.81;;;13.08;79.62
70072;BME280;57434;42.794;23.302;2022-09-12T02:10:24;95075.38;;;10.68;78.65
70072;BME280;57434;42.794;23.302;2022-09-12T02:13:07;95448.25;;;13.55;78.35
70072;BME280;57434;42.794;23.302;2022-09-12T02:15:39;95160.72;;;11.32;79.01
70072;BME280;57434;42.794;23.302;2022-09-12T02:18:13;95187.56;;;11.49;79.50
70072;BME280;57434;42.794;23.302;2022-09-12T02:20:42;95459.03;;;13.35;79.58
70072;BME280;57434;42.794;23.302;2022-09-12T02:23:16;94863.56;;;9.40;78.59
70072;BME280;57434;42.794;23.302;2022-09-12T02:25:51;95114.75;;;10.19;80.45
70072;BME280;57434;42.794;23.302;2022-09-12T02:28:24;95165.59;;;10.44;82.59
70072;BME280;57434;42.794;23.302;2022-09-12T02:34:27;95469.56;;;12.45;84.63
70072;BME280;57434;42.794;23.302;2022-09-12T02:39:54;95153.69;;;10.71;80.99
70072;BME280;57434;42.794;23.302;2022-09-12T02:42:23;95325.72;;;11.48;81.93
70072;BME280;57434;42.794;23.302;2022-09-12T02:44:51;95479.59;;;12.85;81.71
70072;BME280;57434;42.794;23.302;2022-09-12T02:47:42;95368.94;;;11.73;82.24
70072;BME280;57434;42.794;23.302;2022-09-12T02:50:10;95329.75;;;11.41;82.53
70072;BME280;57434;42.794;23.302;2022-09-12T02:52:37;95312.72;;;11.73;82.25
70072;BME280;57434;42.794;23.302;2022-09-12T02:55:07;95041.94;;;9.77;80.89
70072;BME280;57434;42.794;23.302;2022-09-12T02:57:36;95408.47;;;12.62;80.33
70072;BME280;57434;42.794;23.302;2022-09-12T03:00:03;95003.59;;;10.05;78.82
70072;BME280;57434;42.794;23.302;2022-09-12T03:05:31;95107.34;;;10.22;79.40
70072;BME280;57434;42.794;23.302;2022-09-12T03:11:08;95325.53;;;11.79;80.91
70072;BME280;57434;42.794;23.302;2022-09-12T03:22:19;95481.38;;;12.88;81.18
70072;BME280;57434;42.794;23.302;2022-09-12T03:25:20;95119.69;;;10.41;80.19
70072;BME280;57434;42.794;23.302;2022-09-12T03:27:58;95483.44;;;12.87;80.62
70072;BME280;57434;42.794;23.302;2022-09-12T03:30:26;95177.63;;;10.61;80.65
70072;BME280;57434;42.794;23.302;2022-09-12T03:32:53;95007.25;;;9.63;80.77
70072;BME280;57434;42.794;23.302;2022-09-12T03:35:23;95190.19;;;10.77;80.99
70072;BME280;57434;42.794;23.302;2022-09-12T03:37:50;95514.38;;;12.71;81.19
70072;BME280;57434;42.794;23.302;2022-09-12T03:40:16;95211.44;;;10.89;81.11
70072;BME280;57434;42.794;23.302;2022-09-12T03:42:45;95099.72;;;10.23;81.06
70072;BME280;57434;42.794;23.302;2022-09-12T03:45:14;95200.56;;;10.60;80.90
70072;BME280;57434;42.794;23.302;2022-09-12T03:47:43;95535.66;;;12.88;80.88
70072;BME280;57434;42.794;23.302;2022-09-12T03:50:14;95486.75;;;12.75;80.57
70072;BME280;57434;42.794;23.302;2022-09-12T03:52:40;95101.22;;;10.12;81.07
70072;BME280;57434;42.794;23.302;2022-09-12T03:55:06;95375.59;;;11.81;81.33
70072;BME280;57434;42.794;23.302;2022-09-12T03:57:36;95503.13;;;12.76;80.65
70072;BME280;57434;42.794;23.302;2022-09-12T04:00:07;95157.56;;;10.20;80.07
70072;BME280;57434;42.794;23.302;2022-09-12T04:02:42;95492.88;;;12.62;80.27
70072;BME280;57434;42.794;23.302;2022-09-12T04:08:27;95395.78;;;11.79;81.81
70072;BME280;57434;42.794;23.302;2022-09-12T04:11:09;95063.00;;;9.67;81.35
70072;BME280;57434;42.794;23.302;2022-09-12T04:13:37;95546.34;;;12.68;81.44
70072;BME280;57434;42.794;23.302;2022-09-12T04:16:05;95303.22;;;11.48;80.79
70072;BME280;57434;42.794;23.302;2022-09-12T04:18:32;95171.34;;;10.24;79.71
70072;BME280;57434;42.794;23.302;2022-09-12T04:21:03;95119.91;;;10.32;79.87
70072;BME280;57434;42.794;23.302;2022-09-12T04:23:34;95042.28;;;9.90;79.83
70072;BME280;57434;42.794;23.302;2022-09-12T04:26:04;95405.53;;;11.95;80.28
70072;BME280;57434;42.794;23.302;2022-09-12T04:28:40;95337.00;;;11.76;80.45
70072;BME280;57434;42.794;23.302;2022-09-12T04:31:09;95492.88;;;12.79;80.69
70072;BME280;57434;42.794;23.302;2022-09-12T04:33:38;95269.16;;;11.12;80.35
70072;BME280;57434;42.794;23.302;2022-09-12T04:36:15;95201.41;;;10.71;81.02
70072;BME280;57434;42.794;23.302;2022-09-12T04:38:42;95451.13;;;12.21;81.68
70072;BME280;57434;42.794;23.302;2022-09-12T04:41:23;95518.50;;;12.86;81.70
70072;BME280;57434;42.794;23.302;2022-09-12T04:47:00;95376.59;;;11.67;81.32
70072;BME280;57434;42.794;23.302;2022-09-12T04:49:27;95369.47;;;11.77;81.57
70072;BME280;57434;42.794;23.302;2022-09-12T04:51:53;95450.94;;;12.64;80.69
70072;BME280;57434;42.794;23.302;2022-09-12T04:54:22;95457.31;;;12.53;79.89
70072;BME280;57434;42.794;23.302;2022-09-12T04:56:49;95320.13;;;11.65;79.51
70072;BME280;57434;42.794;23.302;2022-09-12T04:59:21;95516.41;;;13.26;79.69
70072;BME280;57434;42.794;23.302;2022-09-12T05:01:50;95409.72;;;12.55;79.72
70072;BME280;57434;42.794;23.302;2022-09-12T05:04:16;95269.28;;;11.63;79.56
70072;BME280;57434;42.794;23.302;2022-09-12T05:06:52;95337.31;;;12.45;79.22
70072;BME280;57434;42.794;23.302;2022-09-12T05:09:25;95225.59;;;11.67;79.52
70072;BME280;57434;42.794;23.302;2022-09-12T05:12:01;94977.09;;;10.06;80.01
70072;BME280;57434;42.794;23.302;2022-09-12T05:14:27;95086.06;;;10.47;80.98
70072;BME280;57434;42.794;23.302;2022-09-12T05:16:53;95014.88;;;10.28;80.91
70072;BME280;57434;42.794;23.302;2022-09-12T05:19:25;95233.53;;;11.58;80.91
70072;BME280;57434;42.794;23.302;2022-09-12T05:22:01;95357.75;;;12.06;80.74
70072;BME280;57434;42.794;23.302;2022-09-12T05:24:34;95278.00;;;11.76;81.46
70072;BME280;57434;42.794;23.302;2022-09-12T05:27:03;95088.16;;;10.74;80.41
70072;BME280;57434;42.794;23.302;2022-09-12T05:29:30;95085.66;;;11.04;79.62
70072;BME280;57434;42.794;23.302;2022-09-12T05:31:56;95454.44;;;13.48;79.21
70072;BME280;57434;42.794;23.302;2022-09-12T05:34:43;95101.97;;;10.89;79.22
70072;BME280;57434;42.794;23.302;2022-09-12T05:37:32;95079.72;;;10.63;79.29
70072;BME280;57434;42.794;23.302;2022-09-12T05:40:01;95280.81;;;12.15;79.98
70072;BME280;57434;42.794;23.302;2022-09-12T05:44:58;95231.09;;;12.73;78.00
70072;BME280;57434;42.794;23.302;2022-09-12T05:47:24;95024.91;;;11.35;76.74
70072;BME280;57434;42.794;23.302;2022-09-12T05:49:50;95431.41;;;14.43;76.11
70072;BME280;57434;42.794;23.302;2022-09-12T05:52:16;95366.97;;;13.71;76.82
70072;BME280;57434;42.794;23.302;2022-09-12T05:54:48;95384.28;;;13.92;77.32
70072;BME280;57434;42.794;23.302;2022-09-12T05:57:16;95309.13;;;13.53;75.45
70072;BME280;57434;42.794;23.302;2022-09-12T05:59:45;95270.47;;;13.89;73.54
70072;BME280;57434;42.794;23.302;2022-09-12T06:02:14;95471.88;;;15.22;73.78
70072;BME280;57434;42.794;23.302;2022-09-12T06:04:42;95268.69;;;13.86;74.55
70072;BME280;57434;42.794;23.302;2022-09-12T06:07:10;95056.63;;;12.68;74.51
70072;BME280;57434;42.794;23.302;2022-09-12T06:09:36;95509.03;;;15.86;72.35
70072;BME280;57434;42.794;23.302;2022-09-12T06:12:02;95237.41;;;14.19;71.57
70072;BME280;57434;42.794;23.302;2022-09-12T06:14:28;95005.44;;;12.69;73.01
70072;BME280;57434;42.794;23.302;2022-09-12T06:17:00;95411.66;;;15.33;71.48
70072;BME280;57434;42.794;23.302;2022-09-12T06:19:26;95528.59;;;16.09;73.70
70072;BME280;57434;42.794;23.302;2022-09-12T06:21:52;95075.91;;;13.29;72.58
70072;BME280;57434;42.794;23.302;2022-09-12T06:24:26;95447.94;;;15.78;71.30
70072;BME280;57434;42.794;23.302;2022-09-12T06:26:52;95272.75;;;14.56;71.71
70072;BME280;57434;42.794;23.302;2022-09-12T06:29:18;95506.66;;;16.15;70.99
70072;BME280;57434;42.794;23.302;2022-09-12T06:31:44;95391.50;;;15.18;70.46
70072;BME280;57434;42.794;23.302;2022-09-12T06:34:13;95499.47;;;16.14;70.79
70072;BME280;57434;42.794;23.302;2022-09-12T06:36:41;95422.59;;;15.91;70.93
70072;BME280;57434;42.794;23.302;2022-09-12T06:39:11;95471.47;;;16.10;69.95
70072;BME280;57434;42.794;23.302;2022-09-12T06:41:37;95537.16;;;16.46;70.70
70072;BME280;57434;42.794;23.302;2022-09-12T06:44:03;95444.16;;;15.70;70.94
70072;BME280;57434;42.794;23.302;2022-09-12T06:46:29;95538.91;;;16.49;70.36
70072;BME280;57434;42.794;23.302;2022-09-12T06:48:56;95525.69;;;16.76;70.08
70072;BME280;57434;42.794;23.302;2022-09-12T06:51:24;95524.25;;;17.20;69.59
70072;BME280;57434;42.794;23.302;2022-09-12T06:53:53;95492.13;;;17.31;67.44
70072;BME280;57434;42.794;23.302;2022-09-12T06:56:21;95417.63;;;16.85;65.18
70072;BME280;57434;42.794;23.302;2022-09-12T06:58:48;95416.66;;;16.64;65.27
70072;BME280;57434;42.794;23.302;2022-09-12T07:01:25;95469.56;;;17.52;65.41
70072;BME280;57434;42.794;23.302;2022-09-12T07:03:53;95534.03;;;18.36;63.81
70072;BME280;57434;42.794;23.302;2022-09-12T07:06:22;95420.28;;;17.68;63.70
70072;BME280;57434;42.794;23.302;2022-09-12T07:09:00;95432.16;;;18.06;62.69
70072;BME280;57434;42.794;23.302;2022-09-12T07:11:29;95404.88;;;18.03;62.52
70072;BME280;57434;42.794;23.302;2022-09-12T07:13:57;95480.25;;;18.51;62.45
70072;BME280;57434;42.794;23.302;2022-09-12T07:16:24;95393.38;;;17.03;64.55
70072;BME280;57434;42.794;23.302;2022-09-12T07:18:51;95365.03;;;17.03;64.25
70072;BME280;57434;42.794;23.302;2022-09-12T07:21:18;95515.13;;;18.39;63.35
70072;BME280;57434;42.794;23.302;2022-09-12T07:23:44;95472.22;;;18.76;62.09
70072;BME280;57434;42.794;23.302;2022-09-12T07:26:11;95511.28;;;19.51;59.22
70072;BME280;57434;42.794;23.302;2022-09-12T07:28:38;95404.97;;;18.58;58.39
70072;BME280;57434;42.794;23.302;2022-09-12T07:31:18;95403.22;;;18.76;59.11
70072;BME280;57434;42.794;23.302;2022-09-12T07:33:49;95287.84;;;18.52;55.75
70072;BME280;57434;42.794;23.302;2022-09-12T07:36:23;95095.00;;;17.37;54.59
70072;BME280;57434;42.794;23.302;2022-09-12T07:39:03;95131.59;;;17.27;55.25
70072;BME280;57434;42.794;23.302;2022-09-12T07:41:47;95199.03;;;16.68;57.12
70072;BME280;57434;42.794;23.302;2022-09-12T07:44:16;95141.44;;;16.07;58.53
70072;BME280;57434;42.794;23.302;2022-09-12T07:47:25;95096.41;;;16.22;56.89
70072;BME280;57434;42.794;23.302;2022-09-12T07:50:09;95225.13;;;16.03;58.91
70072;BME280;57434;42.794;23.302;2022-09-12T07:52:38;95185.06;;;15.48;59.81
70072;BME280;57434;42.794;23.302;2022-09-12T07:55:28;95600.34;;;18.39;59.46
70072;BME280;57434;42.794;23.302;2022-09-12T07:58:14;95223.44;;;16.71;59.53
70072;BME280;57434;42.794;23.302;2022-09-12T08:00:45;95553.19;;;18.96;56.69
70072;BME280;57434;42.794;23.302;2022-09-12T08:03:14;95284.38;;;17.91;54.92
70072;BME280;57434;42.794;23.302;2022-09-12T08:05:45;95143.47;;;17.25;54.45
70072;BME280;57434;42.794;23.302;2022-09-12T08:08:14;95416.50;;;19.92;54.61
70072;BME280;57434;42.794;23.302;2022-09-12T08:10:45;95129.41;;;18.37;53.14
70072;BME280;57434;42.794;23.302;2022-09-12T08:13:14;95129.56;;;18.88;52.48
70072;BME280;57434;42.794;23.302;2022-09-12T08:15:40;95519.66;;;21.29;51.00
70072;BME280;57434;42.794;23.302;2022-09-12T08:18:06;95029.00;;;18.55;50.13
70072;BME280;57434;42.794;23.302;2022-09-12T08:20:34;95446.06;;;21.36;48.22
70072;BME280;57434;42.794;23.302;2022-09-12T08:23:03;95425.66;;;21.01;50.70
70072;BME280;57434;42.794;23.302;2022-09-12T08:25:28;95405.22;;;20.67;48.61
70072;BME280;57434;42.794;23.302;2022-09-12T08:27:55;95396.56;;;20.28;51.51
70072;BME280;57434;42.794;23.302;2022-09-12T08:30:21;95349.16;;;20.69;48.53
70072;BME280;57434;42.794;23.302;2022-09-12T08:32:47;95501.38;;;21.25;50.05
70072;BME280;57434;42.794;23.302;2022-09-12T08:35:13;95500.00;;;21.03;49.03
70072;BME280;57434;42.794;23.302;2022-09-12T08:37:39;95418.47;;;20.05;50.73
70072;BME280;57434;42.794;23.302;2022-09-12T08:40:05;95371.22;;;20.69;50.06
70072;BME280;57434;42.794;23.302;2022-09-12T08:43:01;95493.47;;;21.84;49.04
70072;BME280;57434;42.794;23.302;2022-09-12T08:45:44;95399.22;;;21.61;47.50
70072;BME280;57434;42.794;23.302;2022-09-12T08:48:13;95508.03;;;22.34;47.28
70072;BME280;57434;42.794;23.302;2022-09-12T08:50:40;95453.41;;;22.22;47.95
70072;BME280;57434;42.794;23.302;2022-09-12T08:53:20;95370.09;;;20.94;46.30
70072;BME280;57434;42.794;23.302;2022-09-12T08:55:54;95416.72;;;21.81;47.93
70072;BME280;57434;42.794;23.302;2022-09-12T08:58:26;95465.97;;;22.19;46.28
70072;BME280;57434;42.794;23.302;2022-09-12T09:03:50;95487.13;;;22.16;44.66
70072;BME280;57434;42.794;23.302;2022-09-12T09:06:51;95418.06;;;21.65;44.87
70072;BME280;57434;42.794;23.302;2022-09-12T09:15:12;95475.69;;;22.16;46.60
70072;BME280;57434;42.794;23.302;2022-09-12T09:17:52;95130.44;;;19.71;46.16
70072;BME280;57434;42.794;23.302;2022-09-12T09:23:25;95210.06;;;20.30;45.29
70072;BME280;57434;42.794;23.302;2022-09-12T09:25:58;95151.38;;;20.42;44.73
70072;BME280;57434;42.794;23.302;2022-09-12T09:28:36;95468.28;;;22.13;45.94
70072;BME280;57434;42.794;23.302;2022-09-12T09:31:08;95116.75;;;19.69;45.39
70072;BME280;57434;42.794;23.302;2022-09-12T09:33:36;95106.69;;;20.67;43.22
70072;BME280;57434;42.794;23.302;2022-09-12T09:39:05;95459.88;;;22.78;44.15
70072;BME280;57434;42.794;23.302;2022-09-12T09:42:12;95455.38;;;21.51;45.83
70072;BME280;57434;42.794;23.302;2022-09-12T09:44:43;95436.25;;;20.85;49.13
70072;BME280;57434;42.794;23.302;2022-09-12T09:47:12;95376.16;;;20.76;47.24
70072;BME280;57434;42.794;23.302;2022-09-12T09:49:38;95359.03;;;20.53;47.47
70072;BME280;57434;42.794;23.302;2022-09-12T09:52:06;95476.25;;;21.01;48.72
70072;BME280;57434;42.794;23.302;2022-09-12T09:54:57;95340.00;;;20.33;47.98
70072;BME280;57434;42.794;23.302;2022-09-12T10:05:49;95456.84;;;22.21;44.55
70072;BME280;57434;42.794;23.302;2022-09-12T10:08:23;95406.66;;;21.19;44.89
70072;BME280;57434;42.794;23.302;2022-09-12T10:10:57;95448.47;;;22.08;45.18
70072;BME280;57434;42.794;23.302;2022-09-12T10:13:29;95457.38;;;22.27;43.84
70072;BME280;57434;42.794;23.302;2022-09-12T10:15:59;95432.88;;;22.96;44.46
70072;BME280;57434;42.794;23.302;2022-09-12T10:18:37;95437.31;;;22.90;43.27
70072;BME280;57434;42.794;23.302;2022-09-12T10:21:21;95440.13;;;23.30;41.44
70072;BME280;57434;42.794;23.302;2022-09-12T10:26:42;95436.88;;;23.34;40.39
70072;BME280;57434;42.794;23.302;2022-09-12T10:29:31;95355.78;;;23.31;40.57
70072;BME280;57434;42.794;23.302;2022-09-12T10:32:02;95433.09;;;22.91;39.42
70072;BME280;57434;42.794;23.302;2022-09-12T10:34:43;95272.03;;;21.13;40.07
70072;BME280;57434;42.794;23.302;2022-09-12T10:37:29;95440.38;;;22.84;40.52
70072;BME280;57434;42.794;23.302;2022-09-12T10:39:58;95448.47;;;22.15;42.06
70072;BME280;57434;42.794;23.302;2022-09-12T10:43:00;95411.78;;;22.84;44.06
70072;BME280;57434;42.794;23.302;2022-09-12T10:45:34;95381.66;;;22.43;42.16
70072;BME280;57434;42.794;23.302;2022-09-12T10:48:02;95433.13;;;23.16;42.94
70072;BME280;57434;42.794;23.302;2022-09-12T10:50:40;95471.84;;;22.29;44.63
70072;BME280;57434;42.794;23.302;2022-09-12T12:27:23;95417.34;;;24.85;36.43
70072;BME280;57434;42.794;23.302;2022-09-12T12:29:50;95280.28;;;23.19;37.41
70072;BME280;57434;42.794;23.302;2022-09-12T12:32:21;95218.81;;;22.60;37.88
70072;BME280;57434;42.794;23.302;2022-09-12T12:35:00;95278.81;;;23.35;37.31
70072;BME280;57434;42.794;23.302;2022-09-12T12:40:06;95029.97;;;21.42;37.26
70072;BME280;57434;42.794;23.302;2022-09-12T12:47:45;95132.69;;;21.74;38.78
70072;BME280;57434;42.794;23.302;2022-09-12T12:53:00;95295.09;;;22.83;39.68
70072;BME280;57434;42.794;23.302;2022-09-12T12:55:37;95316.84;;;22.53;40.16
70072;BME280;57434;42.794;23.302;2022-09-12T12:58:35;95356.09;;;23.35;39.56
70072;BME280;57434;42.794;23.302;2022-09-12T13:03:35;95340.09;;;22.82;39.89
70072;BME280;57434;42.794;23.302;2022-09-12T13:06:05;95085.00;;;21.67;39.25
70072;BME280;57434;42.794;23.302;2022-09-12T13:08:35;95115.22;;;22.03;37.07
70072;BME280;57434;42.794;23.302;2022-09-12T13:11:07;95407.78;;;23.12;38.63
70072;BME280;57434;42.794;23.302;2022-09-12T13:16:09;95191.19;;;22.06;38.90
70072;BME280;57434;42.794;23.302;2022-09-12T13:18:44;95295.69;;;22.49;37.58
70072;BME280;57434;42.794;23.302;2022-09-12T13:21:15;95238.00;;;22.10;38.61
70072;BME280;57434;42.794;23.302;2022-09-12T13:23:41;95432.94;;;23.46;37.93
70072;BME280;57434;42.794;23.302;2022-09-12T13:26:22;95244.56;;;21.95;38.83
70072;BME280;57434;42.794;23.302;2022-09-12T13:28:50;95291.91;;;22.06;38.58
70072;BME280;57434;42.794;23.302;2022-09-12T13:31:32;95267.31;;;22.18;38.46
70072;BME280;57434;42.794;23.302;2022-09-12T13:34:00;95404.44;;;23.31;38.78
70072;BME280;57434;42.794;23.302;2022-09-12T13:39:21;95196.41;;;21.44;39.86
70072;BME280;57434;42.794;23.302;2022-09-12T13:44:46;95403.28;;;23.34;39.72
70072;BME280;57434;42.794;23.302;2022-09-12T13:47:39;95317.22;;;22.50;40.66
70072;BME280;57434;42.794;23.302;2022-09-12T13:50:07;95400.69;;;22.56;40.71
70072;BME280;57434;42.794;23.302;2022-09-12T13:52:37;95138.75;;;20.90;41.31
70072;BME280;57434;42.794;23.302;2022-09-12T13:55:22;95276.41;;;21.84;40.84
70072;BME280;57434;42.794;23.302;2022-09-12T13:57:56;95366.84;;;22.29;41.80
70072;BME280;57434;42.794;23.302;2022-09-12T14:00:23;95349.31;;;22.33;40.58
70072;BME280;57434;42.794;23.302;2022-09-12T14:02:53;95398.56;;;22.64;40.20
70072;BME280;57434;42.794;23.302;2022-09-12T14:05:39;95400.13;;;22.90;39.82
70072;BME280;57434;42.794;23.302;2022-09-12T14:08:11;95381.34;;;22.32;40.00
70072;BME280;57434;42.794;23.302;2022-09-12T14:10:43;95257.84;;;21.53;41.03
70072;BME280;57434;42.794;23.302;2022-09-12T14:13:17;95423.03;;;22.82;40.24
70072;BME280;57434;42.794;23.302;2022-09-12T14:15:47;95299.53;;;22.11;40.72
70072;BME280;57434;42.794;23.302;2022-09-12T14:18:28;95418.50;;;22.79;41.19
70072;BME280;57434;42.794;23.302;2022-09-12T14:21:04;95243.28;;;21.18;41.41
70072;BME280;57434;42.794;23.302;2022-09-12T14:23:38;95297.50;;;21.03;42.48
70072;BME280;57434;42.794;23.302;2022-09-12T14:26:08;95391.81;;;21.43;43.15
70072;BME280;57434;42.794;23.302;2022-09-12T14:28:39;95136.09;;;19.12;44.89
70072;BME280;57434;42.794;23.302;2022-09-12T14:31:30;95458.19;;;22.05;43.23
70072;BME280;57434;42.794;23.302;2022-09-12T14:36:51;95424.16;;;21.61;42.65
70072;BME280;57434;42.794;23.302;2022-09-12T14:39:32;95428.34;;;21.22;44.18
70072;BME280;57434;42.794;23.302;2022-09-12T14:42:15;95346.78;;;19.78;45.42
70072;BME280;57434;42.794;23.302;2022-09-12T14:45:16;95429.16;;;20.20;47.22
70072;BME280;57434;42.794;23.302;2022-09-12T14:47:44;95295.38;;;19.19;46.08
70072;BME280;57434;42.794;23.302;2022-09-12T14:50:22;95413.94;;;20.17;47.16
70072;BME280;57434;42.794;23.302;2022-09-12T14:55:48;95366.69;;;19.78;47.76
70072;BME280;57434;42.794;23.302;2022-09-12T15:01:21;95303.50;;;19.15;48.91
70072;BME280;57434;42.794;23.302;2022-09-12T15:03:49;95433.31;;;19.83;49.25
70072;BME280;57434;42.794;23.302;2022-09-12T15:06:34;95334.63;;;18.92;50.24
70072;BME280;57434;42.794;23.302;2022-09-12T15:09:07;95411.53;;;19.36;50.75
70072;BME280;57434;42.794;23.302;2022-09-12T15:11:33;95288.38;;;18.71;50.73
70072;BME280;57434;42.794;23.302;2022-09-12T15:14:06;95334.47;;;18.77;50.71
70072;BME280;57434;42.794;23.302;2022-09-12T15:16:36;95338.59;;;18.69;50.74
70072;BME280;57434;42.794;23.302;2022-09-12T15:19:02;95311.88;;;18.72;50.39
70072;BME280;57434;42.794;23.302;2022-09-12T15:21:28;95441.66;;;19.52;50.70
70072;BME280;57434;42.794;23.302;2022-09-12T15:23:54;95430.88;;;19.58;50.89
70072;BME280;57434;42.794;23.302;2022-09-12T15:26:22;95295.19;;;18.68;50.41
70072;BME280;57434;42.794;23.302;2022-09-12T15:28:49;95264.81;;;18.42;50.84
70072;BME280;57434;42.794;23.302;2022-09-12T15:31:21;95414.63;;;19.38;51.67
70072;BME280;57434;42.794;23.302;2022-09-12T15:33:48;95307.88;;;18.67;51.15
70072;BME280;57434;42.794;23.302;2022-09-12T15:36:16;95401.75;;;18.96;52.28
70072;BME280;57434;42.794;23.302;2022-09-12T15:38:43;95205.78;;;17.52;51.60
70072;BME280;57434;42.794;23.302;2022-09-12T15:41:27;95229.13;;;17.92;51.44
70072;BME280;57434;42.794;23.302;2022-09-12T15:43:54;95379.88;;;18.70;51.89
70072;BME280;57434;42.794;23.302;2022-09-12T15:46:21;95301.06;;;17.94;52.80
70072;BME280;57434;42.794;23.302;2022-09-12T15:48:46;95430.84;;;18.88;52.72
70072;BME280;57434;42.794;23.302;2022-09-12T15:51:17;95409.06;;;19.12;52.49
70072;BME280;57434;42.794;23.302;2022-09-12T15:53:45;95414.63;;;18.97;51.89
70072;BME280;57434;42.794;23.302;2022-09-12T15:56:15;95365.78;;;19.06;52.99
70072;BME280;57434;42.794;23.302;2022-09-12T15:58:41;95404.13;;;19.33;51.51
70072;BME280;57434;42.794;23.302;2022-09-12T16:01:15;95393.81;;;19.22;52.17
70072;BME280;57434;42.794;23.302;2022-09-12T16:03:42;95307.13;;;18.12;51.83
70072;BME280;57434;42.794;23.302;2022-09-12T16:06:07;95411.97;;;18.99;52.00
70072;BME280;57434;42.794;23.302;2022-09-12T16:08:35;95285.09;;;18.05;52.24
70072;BME280;57434;42.794;23.302;2022-09-12T16:11:11;95370.66;;;18.77;51.74
70072;BME280;57434;42.794;23.302;2022-09-12T16:13:38;95268.72;;;17.98;51.65
70072;BME280;57434;42.794;23.302;2022-09-12T16:16:04;95291.56;;;17.92;51.95
70072;BME280;57434;42.794;23.302;2022-09-12T16:18:30;95296.88;;;17.62;52.51
70072;BME280;57434;42.794;23.302;2022-09-12T16:20:56;95426.84;;;18.71;52.53
70072;BME280;57434;42.794;23.302;2022-09-12T16:23:23;95394.91;;;18.57;52.84
70072;BME280;57434;42.794;23.302;2022-09-12T16:26:02;95309.03;;;17.96;52.59
70072;BME280;57434;42.794;23.302;2022-09-12T16:28:29;95419.72;;;18.77;52.63